createdAt,value
2019-04-04T00:01:20.827Z,67.47
2019-04-04T00:03:47.380Z,67.65
2019-04-04T00:06:14.024Z,68.31
2019-04-04T00:08:40.569Z,67.58
2019-04-04T00:11:07.113Z,68.02
2019-04-04T00:13:33.750Z,67.51
2019-04-04T00:16:00.619Z,67.86
2019-04-04T00:18:27.401Z,67.73
2019-04-04T00:20:54.706Z,68.14
2019-04-04T00:23:21.345Z,68.13
2019-04-04T00:25:47.885Z,68.17
2019-04-04T00:28:15.065Z,68.24
2019-04-04T00:30:42.185Z,68.37
2019-04-04T00:33:08.844Z,68.50
2019-04-04T00:35:35.477Z,68.61
2019-04-04T00:38:02.212Z,68.67
2019-04-04T00:40:28.883Z,68.86
2019-04-04T00:42:55.528Z,68.79
2019-04-04T00:45:22.496Z,68.94
2019-04-04T00:47:49.065Z,69.01
2019-04-04T00:50:15.822Z,68.92
2019-04-04T00:52:42.480Z,69.02
2019-04-04T00:55:09.228Z,68.94
2019-04-04T00:57:35.881Z,69.02
2019-04-04T01:00:02.641Z,69.23
2019-04-04T01:02:29.313Z,69.21
2019-04-04T01:04:55.843Z,69.25
2019-04-04T01:07:22.755Z,69.19
2019-04-04T01:09:49.321Z,69.30
2019-04-04T01:12:15.933Z,69.68
2019-04-04T01:14:42.556Z,69.35
2019-04-04T01:17:09.285Z,69.09
2019-04-04T01:19:36.065Z,68.58
2019-04-04T01:22:02.759Z,68.86
2019-04-04T01:24:29.958Z,69.05
2019-04-04T01:26:56.815Z,69.24
2019-04-04T01:29:23.589Z,69.42
2019-04-04T01:31:50.153Z,69.45
2019-04-04T01:34:16.713Z,69.46
2019-04-04T01:36:43.382Z,69.58
2019-04-04T01:39:11.960Z,69.63
2019-04-04T01:41:38.763Z,69.41
2019-04-04T01:44:05.677Z,69.74
2019-04-04T01:46:32.441Z,70.03
2019-04-04T01:48:59.108Z,70.20
2019-04-04T01:51:26.115Z,70.29
2019-04-04T01:53:52.883Z,70.33
2019-04-04T01:56:19.650Z,70.35
2019-04-04T01:58:46.464Z,70.60
2019-04-04T02:01:16.240Z,71.71
2019-04-04T02:03:41.765Z,71.32
2019-04-04T02:06:08.519Z,71.10
2019-04-04T02:08:35.289Z,71.45
2019-04-04T02:11:02.035Z,71.48
2019-04-04T02:13:28.816Z,71.91
2019-04-04T02:15:55.536Z,72.05
2019-04-04T02:18:23.602Z,71.92
2019-04-04T02:20:50.852Z,72.24
2019-04-04T02:23:17.560Z,72.62
2019-04-04T02:25:44.463Z,72.68
2019-04-04T02:28:11.124Z,73.40
2019-04-04T02:30:37.811Z,73.08
2019-04-04T02:33:04.603Z,73.38
2019-04-04T02:35:31.381Z,73.58
2019-04-04T02:37:58.195Z,73.87
2019-04-04T02:40:24.877Z,73.83
2019-04-04T02:42:55.261Z,73.96
2019-04-04T02:45:20.339Z,74.28
2019-04-04T02:47:50.308Z,74.10
2019-04-04T02:50:15.806Z,74.57
2019-04-04T02:52:45.720Z,74.14
2019-04-04T02:55:11.404Z,73.92
2019-04-04T02:57:41.173Z,74.94
2019-04-04T03:00:06.881Z,74.23
2019-04-04T03:02:36.185Z,73.67
2019-04-04T03:05:02.740Z,74.50
2019-04-04T03:07:30.989Z,74.14
2019-04-04T03:09:58.130Z,74.05
2019-04-04T03:12:26.342Z,73.93
2019-04-04T03:14:53.788Z,74.11
2019-04-04T03:17:20.559Z,74.42
2019-04-04T03:19:47.426Z,74.43
2019-04-04T03:22:15.335Z,74.60
2019-04-04T03:24:44.720Z,74.47
2019-04-04T03:27:10.867Z,74.80
2019-04-04T03:29:38.441Z,74.73
2019-04-04T03:32:05.207Z,74.57
2019-04-04T03:34:31.949Z,74.44
2019-04-04T03:36:58.732Z,74.64
2019-04-04T03:39:25.499Z,75.25
2019-04-04T03:41:52.283Z,75.33
2019-04-04T03:44:19.896Z,75.57
2019-04-04T03:46:47.631Z,75.94
2019-04-04T03:49:16.461Z,75.86
2019-04-04T03:51:44.424Z,75.91
2019-04-04T03:54:14.394Z,75.94
2019-04-04T03:56:41.078Z,76.17
2019-04-04T03:59:07.757Z,76.16
2019-04-04T04:01:34.618Z,76.42
2019-04-04T04:04:01.308Z,76.44
2019-04-04T04:06:28.169Z,76.79
2019-04-04T04:08:55.442Z,76.71
2019-04-04T04:11:22.218Z,76.82
2019-04-04T04:13:50.054Z,77.21
2019-04-04T04:16:16.906Z,76.86
2019-04-04T04:18:43.711Z,76.68
2019-04-04T04:21:11.330Z,76.65
2019-04-04T04:23:38.239Z,76.53
2019-04-04T04:26:08.035Z,76.66
2019-04-04T04:28:34.031Z,76.99
2019-04-04T04:31:00.876Z,76.98
2019-04-04T04:33:29.371Z,76.82
2019-04-04T04:35:56.297Z,77.16
2019-04-04T04:38:25.187Z,77.13
2019-04-04T04:40:51.580Z,76.98
2019-04-04T04:43:18.343Z,77.65
2019-04-04T04:45:45.558Z,77.47
2019-04-04T04:48:12.412Z,77.34
2019-04-04T04:50:40.484Z,77.18
2019-04-04T04:53:08.938Z,77.14
2019-04-04T04:55:36.010Z,77.64
2019-04-04T04:58:03.025Z,77.51
2019-04-04T05:00:30.101Z,77.80
2019-04-04T05:02:56.847Z,77.95
2019-04-04T05:05:24.746Z,77.73
2019-04-04T05:07:54.666Z,77.96
2019-04-04T05:10:21.634Z,77.94
2019-04-04T05:12:48.466Z,78.32
2019-04-04T05:15:15.194Z,78.45
2019-04-04T05:17:42.597Z,78.44
2019-04-04T05:20:09.710Z,78.19
2019-04-04T05:22:39.672Z,78.34
2019-04-04T05:25:08.359Z,78.26
2019-04-04T05:27:35.109Z,78.49
2019-04-04T05:30:04.307Z,78.22
2019-04-04T05:32:31.360Z,78.67
2019-04-04T05:35:01.247Z,78.84
2019-04-04T05:37:28.718Z,78.37
2019-04-04T05:39:55.539Z,78.62
2019-04-04T05:42:22.315Z,78.67
2019-04-04T05:44:48.960Z,78.20
2019-04-04T05:47:15.896Z,78.18
2019-04-04T05:49:42.719Z,77.83
2019-04-04T05:52:09.511Z,77.70
2019-04-04T05:54:38.760Z,77.38
2019-04-04T05:57:04.914Z,77.54
2019-04-04T05:59:31.720Z,77.25
2019-04-04T06:01:58.594Z,77.57
2019-04-04T06:04:25.493Z,77.16
2019-04-04T06:06:55.335Z,77.20
2019-04-04T06:09:21.105Z,76.85
2019-04-04T06:11:48.728Z,76.66
2019-04-04T06:14:15.586Z,76.58
2019-04-04T06:16:42.312Z,76.68
2019-04-04T06:19:09.117Z,77.68
2019-04-04T06:21:35.992Z,77.15
2019-04-04T06:24:02.780Z,76.79
2019-04-04T06:26:29.559Z,76.30
2019-04-04T06:28:56.244Z,76.24
2019-04-04T06:31:26.259Z,75.66
2019-04-04T06:33:51.506Z,75.61
2019-04-04T06:36:18.363Z,75.34
2019-04-04T06:38:45.149Z,75.34
2019-04-04T06:41:11.926Z,75.37
2019-04-04T06:43:41.395Z,75.00
2019-04-04T06:46:07.059Z,75.31
2019-04-04T06:48:33.987Z,75.44
2019-04-04T06:51:00.684Z,75.11
2019-04-04T06:53:27.509Z,75.13
2019-04-04T06:55:54.176Z,75.71
2019-04-04T06:58:20.984Z,74.51
2019-04-04T07:00:50.019Z,74.10
2019-04-04T07:03:16.120Z,73.39
2019-04-04T07:05:42.968Z,73.22
2019-04-04T07:08:09.701Z,72.79
2019-04-04T07:10:36.499Z,73.26
2019-04-04T07:13:20.183Z,72.32
2019-04-04T07:15:32.222Z,71.91
2019-04-04T07:17:58.943Z,71.56
2019-04-04T07:20:28.206Z,70.81
2019-04-04T07:22:56.294Z,70.22
2019-04-04T07:25:23.203Z,69.17
2019-04-04T07:27:50.002Z,68.15
2019-04-04T07:30:16.801Z,67.68
2019-04-04T07:32:43.397Z,67.95
2019-04-04T07:35:10.180Z,75.58
2019-04-04T07:37:36.763Z,75.58
2019-04-04T07:40:04.653Z,74.41
2019-04-04T07:42:31.367Z,71.88
2019-04-04T07:44:58.054Z,71.29
2019-04-04T07:47:24.740Z,70.51
2019-04-04T07:49:53.221Z,70.79
2019-04-04T07:52:20.111Z,69.82
2019-04-04T07:54:46.894Z,67.30
2019-04-04T07:57:13.559Z,65.41
2019-04-04T07:59:40.251Z,61.62
2019-04-04T08:02:07.127Z,57.53
2019-04-04T08:04:33.901Z,55.96
2019-04-04T08:07:00.621Z,52.52
2019-04-04T08:09:27.293Z,49.84
2019-04-04T08:11:53.935Z,46.99
2019-04-04T08:14:21.859Z,45.66
2019-04-04T08:16:48.518Z,45.64
2019-04-04T08:19:15.291Z,44.70
2019-04-04T08:21:42.116Z,42.52
2019-04-04T08:24:08.772Z,42.61
2019-04-04T08:26:35.429Z,42.46
2019-04-04T08:29:02.202Z,42.42
2019-04-04T08:31:29.077Z,43.83
2019-04-04T08:33:55.724Z,42.74
2019-04-04T08:36:22.527Z,46.07
2019-04-04T08:38:49.104Z,44.36
2019-04-04T08:41:15.858Z,45.83
2019-04-04T08:43:42.667Z,44.03
2019-04-04T08:46:09.360Z,43.87
2019-04-04T08:48:36.123Z,46.32
2019-04-04T08:51:05.096Z,43.21
2019-04-04T08:53:39.950Z,43.85
2019-04-04T08:56:00.495Z,44.57
2019-04-04T08:58:27.183Z,44.93
2019-04-04T09:00:53.983Z,42.78
2019-04-04T09:03:20.834Z,42.11
2019-04-04T09:05:47.590Z,44.02
2019-04-04T09:08:14.473Z,40.28
2019-04-04T09:10:41.140Z,40.42
2019-04-04T09:13:07.800Z,39.32
2019-04-04T09:15:34.536Z,36.76
2019-04-04T09:18:01.329Z,36.40
2019-04-04T09:20:28.236Z,36.25
2019-04-04T09:22:55.287Z,36.02
2019-04-04T09:25:21.950Z,35.38
2019-04-04T09:27:48.606Z,34.94
2019-04-04T09:30:15.714Z,35.78
2019-04-04T09:32:42.648Z,36.53
2019-04-04T09:35:09.437Z,36.60
2019-04-04T09:37:36.343Z,36.66
2019-04-04T09:40:03.735Z,35.79
2019-04-04T09:42:30.396Z,36.82
2019-04-04T09:44:57.201Z,36.87
2019-04-04T09:47:23.852Z,36.87
2019-04-04T09:49:50.721Z,36.26
2019-04-04T09:52:17.416Z,35.63
2019-04-04T09:54:44.189Z,34.26
2019-04-04T09:57:10.878Z,34.19
2019-04-04T09:59:37.443Z,35.79
2019-04-04T10:02:04.360Z,33.81
2019-04-04T10:04:31.207Z,33.60
2019-04-04T10:06:58.163Z,33.97
2019-04-04T10:09:24.738Z,33.35
2019-04-04T10:11:51.453Z,34.86
2019-04-04T10:14:18.121Z,33.82
2019-04-04T10:16:44.952Z,34.26
2019-04-04T10:19:11.640Z,35.84
2019-04-04T10:21:38.477Z,32.63
2019-04-04T10:24:05.159Z,31.85
2019-04-04T10:26:31.839Z,32.01
2019-04-04T10:28:58.639Z,31.29
2019-04-04T10:31:25.483Z,30.64
2019-04-04T10:33:52.249Z,30.90
2019-04-04T10:36:18.927Z,31.89
2019-04-04T10:38:45.674Z,32.11
2019-04-04T10:41:12.393Z,31.75
2019-04-04T10:43:38.972Z,31.08
2019-04-04T10:46:05.748Z,32.95
2019-04-04T10:48:32.410Z,31.24
2019-04-04T10:50:59.384Z,30.07
2019-04-04T10:53:26.152Z,32.05
2019-04-04T10:55:52.959Z,30.22
2019-04-04T10:58:19.633Z,29.69
2019-04-04T11:00:46.500Z,31.11
2019-04-04T11:03:13.234Z,30.66
2019-04-04T11:05:40.021Z,30.56
2019-04-04T11:08:06.792Z,29.91
2019-04-04T11:10:33.467Z,30.58
2019-04-04T11:13:02.761Z,30.87
2019-04-04T11:15:28.961Z,31.83
2019-04-04T11:17:55.801Z,31.93
2019-04-04T11:20:22.606Z,33.18
2019-04-04T11:22:49.354Z,32.66
2019-04-04T11:25:16.132Z,32.13
2019-04-04T11:27:42.760Z,32.16
2019-04-04T11:30:09.864Z,32.03
2019-04-04T11:32:36.598Z,32.07
2019-04-04T11:35:04.019Z,32.12
2019-04-04T11:37:30.790Z,32.95
2019-04-04T11:39:57.460Z,32.36
2019-04-04T11:42:24.136Z,31.88
2019-04-04T11:44:51.007Z,32.55
2019-04-04T11:47:17.803Z,32.35
2019-04-04T11:49:44.757Z,33.18
2019-04-04T11:52:11.620Z,32.65
2019-04-04T11:54:57.832Z,32.46
2019-04-04T11:57:24.700Z,32.48
2019-04-04T11:59:52.042Z,32.96
2019-04-04T12:02:20.155Z,33.47
2019-04-04T12:04:46.828Z,32.79
2019-04-04T12:07:13.649Z,33.09
2019-04-04T12:09:40.559Z,33.48
2019-04-04T12:12:07.466Z,33.10
2019-04-04T12:14:34.143Z,35.54
2019-04-04T12:17:01.008Z,35.54
2019-04-04T12:19:27.907Z,36.76
2019-04-04T12:21:54.705Z,36.97
2019-04-04T12:24:21.472Z,37.04
2019-04-04T12:26:48.149Z,36.89
2019-04-04T12:29:14.911Z,37.60
2019-04-04T12:31:41.604Z,37.96
2019-04-04T12:34:08.314Z,37.98
2019-04-04T12:36:37.123Z,38.95
2019-04-04T12:39:05.982Z,38.26
2019-04-04T12:41:32.893Z,38.93
2019-04-04T12:43:59.590Z,38.26
2019-04-04T12:46:27.380Z,39.12
2019-04-04T12:48:54.042Z,38.26
2019-04-04T12:51:20.612Z,37.95
2019-04-04T12:53:47.641Z,38.05
2019-04-04T12:56:14.345Z,37.97
2019-04-04T12:58:41.152Z,38.56
2019-04-04T13:01:07.875Z,38.00
2019-04-04T13:03:34.421Z,38.20
2019-04-04T13:06:01.287Z,38.48
2019-04-04T13:08:30.470Z,39.75
2019-04-04T13:10:58.808Z,37.65
2019-04-04T13:13:25.478Z,38.22
2019-04-04T13:15:52.160Z,38.11
2019-04-04T13:18:18.835Z,39.64
2019-04-04T13:20:45.502Z,38.89
2019-04-04T13:23:12.310Z,37.81
2019-04-04T13:25:41.977Z,38.35
2019-04-04T13:28:11.118Z,37.93
2019-04-04T13:30:37.926Z,38.89
2019-04-04T13:33:04.691Z,39.78
2019-04-04T13:35:31.392Z,38.76
2019-04-04T13:37:58.044Z,39.85
2019-04-04T13:40:24.821Z,40.99
2019-04-04T13:42:52.956Z,40.22
2019-04-04T13:45:20.224Z,40.37
2019-04-04T13:47:46.977Z,39.11
2019-04-04T13:50:14.042Z,38.80
2019-04-04T13:52:40.879Z,39.14
2019-04-04T13:55:07.754Z,38.94
2019-04-04T13:57:35.968Z,39.20
2019-04-04T14:00:09.117Z,39.28
2019-04-04T14:02:42.200Z,37.70
2019-04-04T14:05:11.491Z,37.40
2019-04-04T14:07:39.594Z,38.06
2019-04-04T14:10:08.710Z,38.06
2019-04-04T14:12:35.705Z,36.88
2019-04-04T14:15:05.823Z,39.37
2019-04-04T14:17:32.743Z,39.86
2019-04-04T14:20:00.600Z,39.61
2019-04-04T14:22:29.348Z,38.75
2019-04-04T14:25:05.642Z,37.92
2019-04-04T14:27:32.737Z,39.31
2019-04-04T14:29:59.743Z,39.59
2019-04-04T14:32:26.658Z,37.74
2019-04-04T14:34:53.531Z,37.93
2019-04-04T14:37:20.337Z,36.49
2019-04-04T14:39:52.636Z,36.90
2019-04-04T14:42:19.535Z,37.30
2019-04-04T14:44:46.585Z,38.46
2019-04-04T14:47:17.088Z,39.14
2019-04-04T14:49:45.804Z,38.83
2019-04-04T14:52:19.530Z,38.92
2019-04-04T14:54:44.944Z,39.09
2019-04-04T14:57:11.716Z,39.84
2019-04-04T14:59:38.596Z,39.45
2019-04-04T15:02:05.444Z,40.18
2019-04-04T15:04:35.215Z,39.38
2019-04-04T15:07:05.335Z,39.22
2019-04-04T15:09:32.079Z,39.31
2019-04-04T15:11:58.885Z,39.31
2019-04-04T15:14:25.737Z,39.95
2019-04-04T15:16:52.485Z,39.71
2019-04-04T15:19:19.236Z,39.11
2019-04-04T15:21:46.031Z,40.06
2019-04-04T15:24:13.800Z,39.90
2019-04-04T15:26:40.502Z,40.82
2019-04-04T15:29:07.402Z,41.22
2019-04-04T15:31:34.093Z,41.67
2019-04-04T15:34:01.604Z,41.86
2019-04-04T15:36:28.407Z,42.72
2019-04-04T15:38:55.192Z,43.04
2019-04-04T15:41:22.080Z,43.40
2019-04-04T15:43:48.859Z,44.60
2019-04-04T15:46:15.636Z,43.90
2019-04-04T15:48:42.380Z,44.43
2019-04-04T15:51:09.099Z,45.05
2019-04-04T15:53:35.939Z,46.18
2019-04-04T15:56:02.645Z,46.80
2019-04-04T15:58:29.639Z,47.67
2019-04-04T16:00:56.486Z,48.03
2019-04-04T16:03:23.647Z,48.73
2019-04-04T16:05:50.643Z,49.04
2019-04-04T16:08:17.498Z,50.47
2019-04-04T16:10:44.403Z,49.46
2019-04-04T16:13:11.125Z,50.09
2019-04-04T16:15:37.847Z,50.47
2019-04-04T16:18:04.642Z,50.62
2019-04-04T16:20:31.465Z,50.99
2019-04-04T16:22:58.332Z,52.22
2019-04-04T16:25:25.186Z,51.75
2019-04-04T16:27:51.900Z,51.99
2019-04-04T16:30:18.681Z,52.06
2019-04-04T16:32:45.539Z,52.19
2019-04-04T16:35:12.373Z,53.69
2019-04-04T16:37:39.216Z,53.79
2019-04-04T16:40:09.216Z,53.01
2019-04-04T16:42:35.620Z,54.21
2019-04-04T16:45:02.801Z,54.06
2019-04-04T16:47:29.469Z,54.81
2019-04-04T16:49:56.173Z,54.34
2019-04-04T16:52:22.904Z,54.23
2019-04-04T16:54:53.588Z,54.20
2019-04-04T16:57:20.088Z,54.57
2019-04-04T16:59:46.757Z,54.97
2019-04-04T17:02:15.498Z,55.00
2019-04-04T17:04:42.132Z,55.28
2019-04-04T17:07:08.826Z,55.04
2019-04-04T17:09:35.516Z,55.27
2019-04-04T17:12:14.173Z,55.73
2019-04-04T17:14:33.117Z,55.74
2019-04-04T17:16:59.270Z,54.79
2019-04-04T17:19:26.086Z,54.95
2019-04-04T17:21:52.733Z,54.92
2019-04-04T17:24:19.451Z,53.99
2019-04-04T17:26:46.313Z,54.52
2019-04-04T17:29:13.166Z,54.60
2019-04-04T17:31:39.988Z,54.94
2019-04-04T17:34:06.888Z,54.87
2019-04-04T17:36:33.895Z,55.65
2019-04-04T17:39:00.646Z,55.24
2019-04-04T17:41:27.607Z,55.00
2019-04-04T17:43:54.382Z,54.03
2019-04-04T17:46:21.039Z,54.02
2019-04-04T17:48:48.372Z,54.61
2019-04-04T17:51:16.755Z,54.85
2019-04-04T17:53:43.592Z,54.27
2019-04-04T17:56:10.280Z,54.82
2019-04-04T17:58:37.076Z,55.14
2019-04-04T18:01:05.102Z,54.21
2019-04-04T18:03:31.862Z,54.40
2019-04-04T18:05:58.717Z,54.95
2019-04-04T18:08:25.400Z,55.12
2019-04-04T18:10:52.241Z,55.41
2019-04-04T18:13:19.119Z,55.29
2019-04-04T18:15:46.096Z,55.30
2019-04-04T18:18:12.764Z,56.41
2019-04-04T18:20:39.615Z,55.44
2019-04-04T18:23:06.491Z,55.30
2019-04-04T18:25:33.684Z,55.21
2019-04-04T18:28:01.611Z,56.52
2019-04-04T18:30:28.434Z,56.02
2019-04-04T18:32:55.610Z,55.46
2019-04-04T18:35:22.492Z,55.90
2019-04-04T18:37:49.583Z,56.10
2019-04-04T18:40:16.549Z,56.44
2019-04-04T18:42:53.065Z,57.31
2019-04-04T18:45:12.856Z,56.96
2019-04-04T18:47:39.662Z,57.40
2019-04-04T18:50:06.492Z,58.36
2019-04-04T18:52:33.310Z,57.40
2019-04-04T18:55:00.151Z,56.39
2019-04-04T18:57:26.834Z,56.31
2019-04-04T18:59:54.545Z,56.51
2019-04-04T19:02:21.404Z,56.48
2019-04-04T19:04:48.085Z,56.96
2019-04-04T19:07:14.880Z,57.26
2019-04-04T19:09:41.731Z,58.07
2019-04-04T19:12:08.472Z,57.96
2019-04-04T19:14:35.349Z,57.18
2019-04-04T19:17:02.244Z,57.69
2019-04-04T19:19:29.162Z,58.54
2019-04-04T19:21:55.960Z,57.97
2019-04-04T19:24:22.749Z,57.58
2019-04-04T19:26:49.521Z,57.96
2019-04-04T19:29:17.549Z,57.93
2019-04-04T19:31:44.483Z,57.33
2019-04-04T19:34:11.282Z,57.72
2019-04-04T19:36:44.026Z,57.38
2019-04-04T19:39:16.111Z,57.34
2019-04-04T19:41:42.897Z,57.50
2019-04-04T19:44:09.896Z,57.91
2019-04-04T19:46:37.469Z,58.37
2019-04-04T19:49:04.374Z,58.74
2019-04-04T19:51:31.210Z,59.08
2019-04-04T19:53:59.067Z,58.50
2019-04-04T19:56:26.009Z,58.50
2019-04-04T19:58:52.927Z,59.59
2019-04-04T20:01:19.693Z,59.13
2019-04-04T20:03:46.518Z,58.85
2019-04-04T20:06:13.397Z,58.60
2019-04-04T20:08:42.092Z,58.63
2019-04-04T20:11:09.865Z,59.64
2019-04-04T20:13:36.712Z,58.62
2019-04-04T20:16:03.579Z,58.54
2019-04-04T20:18:30.400Z,58.47
2019-04-04T20:20:57.236Z,59.37
2019-04-04T20:23:24.027Z,58.89
2019-04-04T20:25:51.008Z,58.52
2019-04-04T20:28:17.859Z,58.87
2019-04-04T20:30:44.638Z,59.02
2019-04-04T20:33:13.398Z,59.48
2019-04-04T20:35:40.225Z,59.04
2019-04-04T20:38:07.024Z,58.92
2019-04-04T20:40:35.906Z,59.49
2019-04-04T20:43:02.791Z,59.38
2019-04-04T20:45:29.629Z,59.64
2019-04-04T20:47:56.406Z,60.38
2019-04-04T20:50:23.165Z,60.46
2019-04-04T20:52:50.067Z,59.78
2019-04-04T20:55:16.835Z,58.21
2019-04-04T20:57:43.661Z,59.74
2019-04-04T21:00:10.718Z,60.23
2019-04-04T21:02:37.485Z,58.60
2019-04-04T21:05:04.544Z,58.79
2019-04-04T21:07:34.495Z,59.60
2019-04-04T21:10:01.289Z,59.63
2019-04-04T21:12:28.048Z,59.27
2019-04-04T21:14:54.848Z,59.20
2019-04-04T21:17:21.626Z,59.66
2019-04-04T21:19:48.392Z,59.08
2019-04-04T21:22:27.021Z,59.04
2019-04-04T21:24:44.200Z,58.33
2019-04-04T21:27:11.074Z,59.23
2019-04-04T21:29:37.927Z,60.23
2019-04-04T21:32:04.691Z,58.83
2019-04-04T21:34:31.639Z,59.43
2019-04-04T21:36:58.387Z,58.77
2019-04-04T21:39:26.132Z,59.34
2019-04-04T21:41:53.094Z,58.99
2019-04-04T21:44:19.836Z,60.27
2019-04-04T21:46:46.755Z,59.55
2019-04-04T21:49:13.512Z,60.10
2019-04-04T21:51:40.285Z,61.25
2019-04-04T21:54:06.974Z,61.01
2019-04-04T21:56:33.643Z,60.77
2019-04-04T21:59:00.363Z,59.77
2019-04-04T22:01:27.058Z,59.55
2019-04-04T22:03:55.668Z,59.36
2019-04-04T22:06:22.551Z,59.62
2019-04-04T22:08:49.241Z,60.14
2019-04-04T22:11:16.040Z,61.09
2019-04-04T22:13:42.717Z,60.26
2019-04-04T22:16:09.523Z,60.16
2019-04-04T22:18:36.450Z,60.63
2019-04-04T22:21:03.250Z,60.87
2019-04-04T22:23:29.892Z,61.03
2019-04-04T22:25:56.554Z,61.47
2019-04-04T22:28:23.389Z,61.37
2019-04-04T22:30:50.100Z,62.27
2019-04-04T22:33:16.798Z,60.83
2019-04-04T22:35:43.656Z,60.90
2019-04-04T22:38:10.391Z,61.22
2019-04-04T22:40:37.302Z,61.37
2019-04-04T22:43:04.118Z,61.89
2019-04-04T22:45:30.848Z,60.88
2019-04-04T22:47:57.641Z,60.95
2019-04-04T22:50:24.473Z,60.76
2019-04-04T22:52:52.347Z,61.83
2019-04-04T22:55:19.120Z,61.36
2019-04-04T22:57:45.839Z,61.85
2019-04-04T23:00:13.084Z,61.58
2019-04-04T23:02:39.895Z,62.25
2019-04-04T23:05:06.985Z,61.51
2019-04-04T23:07:33.777Z,61.53
2019-04-04T23:10:00.562Z,61.14
2019-04-04T23:12:27.338Z,61.05
2019-04-04T23:14:54.035Z,61.06
2019-04-04T23:17:21.732Z,61.56
2019-04-04T23:19:48.443Z,62.28
2019-04-04T23:22:15.116Z,62.55
2019-04-04T23:24:41.816Z,62.09
2019-04-04T23:27:08.504Z,62.76
2019-04-04T23:29:35.429Z,63.27
2019-04-04T23:32:02.010Z,63.15
2019-04-04T23:34:28.786Z,62.73
2019-04-04T23:36:55.478Z,62.91
2019-04-04T23:39:23.213Z,62.92
2019-04-04T23:41:50.130Z,63.79
2019-04-04T23:44:16.796Z,63.53
2019-04-04T23:46:43.360Z,62.90
2019-04-04T23:49:10.271Z,63.23
2019-04-04T23:51:36.958Z,63.27
2019-04-04T23:54:03.950Z,63.27
2019-04-04T23:56:30.655Z,63.78
2019-04-04T23:58:57.335Z,64.63
